Aviation Digital Data Service (ADDS)

Output produced by METARs form (1412 UTC 19 July 2019)
found at http://aviationweather.gov/metar/data/
 
METAR text: KUAO 191353Z 00000KT 10SM CLR 13/09 A3013 RMK AO2 SLP202 T01280094
Conditions at: KUAO (AURORA , OR, US) observed 1353 UTC 19 July 2019
Temperature: 12.8°C (55°F)
Dewpoint: 9.4°C (49°F) [RH = 80%]
Pressure (altimeter): 30.13 inches Hg (1020.4 mb)
[Sea-level pressure: 1020.2 mb]
Winds: calm
Visibility: 10 or more miles (16+ km)
Ceiling: at least 12,000 feet AGL
Clouds: sky clear below 12,000 feet AGL
Weather: no significant weather observed at this time

METAR text: KUAO 191253Z 00000KT 10SM CLR 12/08 A3011 RMK AO2 SLP196 T01170083
Conditions at: KUAO (AURORA , OR, US) observed 1253 UTC 19 July 2019
Temperature: 11.7°C (53°F)
Dewpoint: 8.3°C (47°F) [RH = 80%]
Pressure (altimeter): 30.11 inches Hg (1019.7 mb)
[Sea-level pressure: 1019.6 mb]
Winds: calm
Visibility: 10 or more miles (16+ km)
Ceiling: at least 12,000 feet AGL
Clouds: sky clear below 12,000 feet AGL
Weather: no significant weather observed at this time

Forecast for: KUAO (AURORA , OR, US)
Text: KUAO 191120Z 1912/2012 36003KT P6SM SKC
Forecast period: 1200 to 2100 UTC 19 July 2019
Forecast type: FROM: standard forecast or significant change
Winds: from the N (360 degrees) at 3 MPH (3 knots; 1.5 m/s)
Visibility: 6 or more miles 10+ km)
Clouds: clear skies
Weather: no significant weather forecast for this period
Text: FM192100 34010KT P6SM SKC
Forecast period: 2100 UTC 19 July 2019 to 1200 UTC 20 July 2019
Forecast type: FROM: standard forecast or significant change
Winds: from the NNW (340 degrees) at 12 MPH (10 knots; 5.1 m/s)
Visibility: 6 or more miles 10+ km)
Clouds: clear skies
Weather: no significant weather forecast for this period